Time;durP1;ratioP1;P1;durP2;ratioP2;P2;SDS_P1;SDS_P2;PMS_P1;PMS_P2;Temp;Humidity;BMP_temperature;BMP_pressure;BME280_temperature;BME280_humidity;BME280_pressure;Samples;Min_cycle;Max_cycle;Signal;HPM_P1;HPM_P2
2021/07/25 00:00:06;;;;;;;10.53;7.70;;;;;;;27.09;96.05;97409.06;5045405;28;20198;-66
2021/07/25 00:02:34;;;;;;;14.77;8.53;;;;;;;27.10;96.73;97406.00;5043803;28;20210;-67
2021/07/25 00:05:02;;;;;;;14.00;8.83;;;;;;;27.05;95.12;97408.13;5051279;28;20282;-67
2021/07/25 00:07:31;;;;;;;11.00;8.37;;;;;;;26.97;97.01;97404.25;5046676;28;20206;-65
2021/07/25 00:09:58;;;;;;;14.57;9.07;;;;;;;27.25;95.39;97394.59;5046574;28;20668;-66
2021/07/25 00:12:25;;;;;;;10.40;7.30;;;;;;;26.96;96.80;97386.19;5054211;28;20302;-67
2021/07/25 00:14:53;;;;;;;13.57;8.53;;;;;;;26.59;97.41;97375.81;5042465;28;20237;-68
2021/07/25 00:17:20;;;;;;;12.17;8.17;;;;;;;26.48;98.49;97376.38;5042026;28;20574;-66
2021/07/25 00:19:47;;;;;;;12.03;7.73;;;;;;;27.08;94.13;97374.59;5035140;28;20297;-67
2021/07/25 00:22:15;;;;;;;14.57;9.23;;;;;;;26.40;100.00;97363.50;5046291;28;20678;-66
2021/07/25 00:24:50;;;;;;;13.27;7.30;;;;;;;26.69;100.00;97344.56;5050087;28;20274;-67
2021/07/25 00:27:19;;;;;;;14.07;7.83;;;;;;;26.40;100.00;97347.09;5041425;28;20268;-66
2021/07/25 00:29:46;;;;;;;14.67;8.70;;;;;;;26.34;99.68;97340.13;5053194;28;20248;-66
2021/07/25 00:32:15;;;;;;;12.20;8.00;;;;;;;26.37;100.00;97358.66;5042617;28;20213;-65
2021/07/25 00:34:44;;;;;;;19.13;8.33;;;;;;;26.13;100.00;97375.47;5046565;28;20283;-66
2021/07/25 00:37:11;;;;;;;11.77;8.13;;;;;;;26.24;100.00;97376.78;5079365;22;20244;-66
2021/07/25 00:39:38;;;;;;;10.03;7.03;;;;;;;26.90;95.72;97372.97;5071491;28;20208;-66
2021/07/25 00:42:07;;;;;;;10.93;7.80;;;;;;;26.90;97.52;97392.94;5066187;28;20202;-66
2021/07/25 00:44:35;;;;;;;12.23;8.13;;;;;;;27.24;93.34;97390.25;5064211;28;20212;-67
2021/07/25 00:47:04;;;;;;;11.60;7.53;;;;;;;27.22;92.50;97380.75;5052989;28;20670;-66
2021/07/25 00:49:31;;;;;;;14.13;8.30;;;;;;;27.21;92.24;97385.41;5044833;28;20210;-66
2021/07/25 00:51:59;;;;;;;14.90;8.73;;;;;;;26.24;97.71;97395.16;5054479;28;20221;-66
2021/07/25 00:54:26;;;;;;;10.20;7.37;;;;;;;26.95;94.54;97397.47;5043276;28;20316;-66
2021/07/25 00:56:53;;;;;;;10.97;6.90;;;;;;;27.07;92.37;97392.16;5050590;28;20712;-66
2021/07/25 00:59:22;;;;;;;12.33;8.53;;;;;;;26.77;95.30;97391.16;5050893;28;20214;-66
2021/07/25 01:01:50;;;;;;;12.43;8.37;;;;;;;26.75;97.53;97390.66;5047622;28;20199;-66
2021/07/25 01:04:25;;;;;;;13.23;8.40;;;;;;;26.62;97.95;97383.41;5051897;28;20210;-67
2021/07/25 01:07:02;;;;;;;10.33;8.17;;;;;;;26.17;100.00;97375.63;5056135;28;20228;-67
2021/07/25 01:09:36;;;;;;;11.90;9.27;;;;;;;26.38;100.00;97363.00;5054865;28;20569;-67
2021/07/25 01:12:07;;;;;;;11.53;8.00;;;;;;;26.57;97.01;97345.22;5050278;28;20233;-67
2021/07/25 01:14:36;;;;;;;15.93;9.00;;;;;;;26.34;100.00;97330.00;5050682;28;20199;-67
2021/07/25 01:17:29;;;;;;;12.97;8.67;;;;;;;26.56;98.54;97326.38;5050416;28;20239;-67
2021/07/25 01:19:58;;;;;;;12.57;8.67;;;;;;;25.56;100.00;97310.00;5047778;28;20674;-69
2021/07/25 01:22:26;;;;;;;13.30;8.63;;;;;;;25.52;100.00;97311.75;5054554;28;20202;-67
2021/07/25 01:24:54;;;;;;;16.60;9.43;;;;;;;25.27;100.00;97312.41;5046836;28;20294;-67
2021/07/25 01:27:27;;;;;;;13.73;8.47;;;;;;;25.85;100.00;97310.31;5050083;28;20228;-67
2021/07/25 01:29:57;;;;;;;14.07;8.87;;;;;;;25.84;100.00;97328.63;5045775;28;20201;-67
2021/07/25 01:32:25;;;;;;;13.63;8.80;;;;;;;26.48;99.62;97344.34;5051707;28;20226;-67
2021/07/25 01:34:53;;;;;;;16.90;8.70;;;;;;;26.77;97.58;97332.84;5038331;28;20210;-67
2021/07/25 01:37:22;;;;;;;12.53;7.73;;;;;;;26.79;94.94;97336.06;5052536;28;20248;-67
2021/07/25 01:39:50;;;;;;;13.77;8.37;;;;;;;26.57;95.09;97326.06;5047951;28;20206;-67
2021/07/25 01:42:28;;;;;;;14.13;8.27;;;;;;;26.20;98.05;97340.25;5043124;28;20209;-67
2021/07/25 01:44:55;;;;;;;13.67;7.87;;;;;;;26.34;98.06;97353.78;5056298;28;20208;-67
2021/07/25 01:47:22;;;;;;;11.93;7.37;;;;;;;26.23;98.74;97355.22;5047980;28;20228;-67
2021/07/25 01:49:50;;;;;;;12.37;7.83;;;;;;;26.54;95.68;97334.88;5051255;28;20198;-67
2021/07/25 01:52:17;;;;;;;10.97;8.30;;;;;;;26.58;93.96;97322.19;5051017;28;20245;-68
2021/07/25 01:54:46;;;;;;;10.60;7.43;;;;;;;26.29;98.34;97310.19;5042872;28;20658;-67
2021/07/25 01:57:13;;;;;;;12.43;8.70;;;;;;;26.65;94.98;97321.72;5050594;28;20226;-67
2021/07/25 01:59:40;;;;;;;11.37;8.50;;;;;;;26.79;94.28;97336.88;5050161;28;20209;-67
2021/07/25 02:02:08;;;;;;;11.30;7.83;;;;;;;26.25;96.79;97363.94;5051959;28;20206;-67
2021/07/25 02:04:35;;;;;;;11.33;8.43;;;;;;;25.93;99.61;97367.00;5044597;28;20206;-67
2021/07/25 02:07:02;;;;;;;14.37;8.10;;;;;;;25.80;100.00;97370.59;5046766;28;20226;-67
2021/07/25 02:09:30;;;;;;;19.87;8.73;;;;;;;26.12;100.00;97379.31;5052914;28;20212;-67
2021/07/25 02:11:58;;;;;;;16.27;8.77;;;;;;;25.97;100.00;97381.66;5051277;28;20233;-67
2021/07/25 02:14:25;;;;;;;12.47;8.23;;;;;;;26.19;99.05;97374.19;5046082;28;20208;-67
2021/07/25 02:16:53;;;;;;;16.50;9.30;;;;;;;26.34;96.48;97365.56;5047423;28;20229;-67
2021/07/25 02:19:20;;;;;;;13.53;9.23;;;;;;;26.51;96.27;97364.81;5052295;28;20469;-67
2021/07/25 02:21:47;;;;;;;11.67;9.30;;;;;;;26.73;94.39;97356.50;5050782;28;20209;-67
2021/07/25 02:24:15;;;;;;;12.17;9.20;;;;;;;26.69;95.80;97359.09;5050189;28;20216;-67
2021/07/25 02:26:42;;;;;;;13.93;8.97;;;;;;;26.62;94.77;97358.75;5046849;28;20218;-67
2021/07/25 02:29:10;;;;;;;12.27;8.73;;;;;;;26.58;95.10;97362.44;5049575;28;20210;-67
2021/07/25 02:31:38;;;;;;;10.43;7.93;;;;;;;26.54;93.93;97362.25;5040530;28;20228;-67
2021/07/25 02:34:05;;;;;;;13.97;9.10;;;;;;;26.14;98.15;97348.94;5052935;28;20232;-67
2021/07/25 02:36:32;;;;;;;13.23;8.03;;;;;;;26.47;96.47;97345.50;5053327;28;20255;-67
2021/07/25 02:39:00;;;;;;;12.20;8.43;;;;;;;26.83;93.45;97354.28;5050979;28;20210;-67
2021/07/25 02:41:27;;;;;;;12.93;9.37;;;;;;;25.95;99.98;97354.63;5051851;28;20198;-67
2021/07/25 02:43:54;;;;;;;14.17;8.60;;;;;;;26.32;96.23;97372.47;5048599;28;20201;-67
2021/07/25 02:46:23;;;;;;;11.07;8.17;;;;;;;26.44;96.27;97372.66;5051669;28;20272;-67
2021/07/25 02:48:50;;;;;;;10.37;8.53;;;;;;;26.17;99.88;97378.38;5048877;28;20772;-67
2021/07/25 02:51:18;;;;;;;11.80;8.17;;;;;;;26.16;99.18;97376.75;5048638;28;20230;-67
2021/07/25 02:53:45;;;;;;;12.80;8.27;;;;;;;26.58;95.45;97382.41;5050542;28;20202;-67
2021/07/25 02:56:12;;;;;;;11.40;8.00;;;;;;;26.80;92.15;97387.75;5049591;28;20244;-67
2021/07/25 02:58:39;;;;;;;12.43;9.23;;;;;;;26.58;95.33;97381.59;5043379;28;20198;-67
2021/07/25 03:01:10;;;;;;;10.30;8.53;;;;;;;26.89;92.66;97379.56;5051881;28;20206;-67
2021/07/25 03:03:39;;;;;;;12.37;8.63;;;;;;;27.08;91.66;97377.31;5044413;28;20199;-67
2021/07/25 03:06:07;;;;;;;10.77;8.17;;;;;;;27.03;92.67;97372.81;5044743;28;20225;-67
2021/07/25 03:08:34;;;;;;;11.23;7.80;;;;;;;26.95;92.99;97376.34;5050563;28;20202;-67
2021/07/25 03:11:02;;;;;;;10.63;8.43;;;;;;;27.03;91.67;97374.75;5040326;28;20230;-67
2021/07/25 03:13:30;;;;;;;11.93;7.90;;;;;;;27.01;91.38;97377.81;5051464;28;20202;-67
2021/07/25 03:16:02;;;;;;;12.87;8.03;;;;;;;26.85;92.92;97378.59;5040902;28;20218;-67
2021/07/25 03:18:30;;;;;;;12.13;8.80;;;;;;;26.91;92.69;97371.84;5053532;28;20206;-67
2021/07/25 03:20:58;;;;;;;11.10;7.57;;;;;;;27.06;90.59;97365.91;5046040;28;20209;-67
2021/07/25 03:23:26;;;;;;;8.87;7.10;;;;;;;27.00;90.04;97365.25;5055094;28;20241;-67
2021/07/25 03:25:53;;;;;;;11.67;7.57;;;;;;;26.74;92.89;97363.59;5045775;28;20232;-67
2021/07/25 03:28:21;;;;;;;10.97;7.77;;;;;;;26.42;96.43;97358.50;5055760;28;20210;-67
2021/07/25 03:30:49;;;;;;;11.37;8.10;;;;;;;26.80;93.40;97376.03;5054000;28;20206;-67
2021/07/25 03:33:16;;;;;;;10.00;7.17;;;;;;;26.57;93.87;97374.50;5054380;28;20632;-67
2021/07/25 03:35:44;;;;;;;12.00;8.10;;;;;;;26.54;95.11;97380.56;5052435;28;20229;-67
2021/07/25 03:38:13;;;;;;;8.80;7.40;;;;;;;26.55;94.12;97384.97;5053766;28;20292;-67
2021/07/25 03:40:42;;;;;;;11.03;7.30;;;;;;;26.62;93.22;97388.06;5051777;28;20237;-67
2021/07/25 03:43:10;;;;;;;11.43;8.37;;;;;;;26.61;93.53;97383.72;5052554;28;20658;-67
2021/07/25 03:45:37;;;;;;;11.23;7.20;;;;;;;26.51;94.16;97394.91;5052577;28;20702;-67
2021/07/25 03:48:06;;;;;;;10.73;7.27;;;;;;;26.51;94.05;97392.97;5057815;28;20217;-67
2021/07/25 03:50:34;;;;;;;11.37;7.13;;;;;;;26.62;92.93;97394.34;5050991;28;20215;-66
2021/07/25 03:53:01;;;;;;;14.57;7.63;;;;;;;26.85;90.10;97395.03;5050671;28;20229;-67
2021/07/25 03:55:30;;;;;;;9.13;6.90;;;;;;;26.32;92.17;97394.38;5051097;28;20222;-67
2021/07/25 03:57:57;;;;;;;10.87;6.97;;;;;;;26.22;93.83;97400.13;5052529;28;20659;-68
2021/07/25 04:00:25;;;;;;;12.23;7.80;;;;;;;25.99;95.80;97396.63;5052846;28;20202;-67
2021/07/25 04:02:52;;;;;;;12.40;7.83;;;;;;;26.09;94.62;97392.84;5051020;28;20224;-67
2021/07/25 04:05:19;;;;;;;11.27;7.20;;;;;;;26.14;94.12;97389.97;5045439;28;20685;-67
2021/07/25 04:07:46;;;;;;;10.80;7.40;;;;;;;26.13;93.99;97393.78;5052044;28;20235;-67
2021/07/25 04:10:15;;;;;;;9.57;7.33;;;;;;;25.95;94.85;97394.84;5046474;28;20210;-67
2021/07/25 04:12:43;;;;;;;13.73;8.00;;;;;;;26.02;94.92;97390.53;5051745;28;20224;-67
2021/07/25 04:15:11;;;;;;;10.57;7.57;;;;;;;25.90;94.39;97393.00;5039179;28;20216;-67
2021/07/25 04:17:39;;;;;;;10.80;7.80;;;;;;;25.84;96.71;97394.25;5049912;28;20575;-67
2021/07/25 04:20:07;;;;;;;11.83;7.47;;;;;;;25.97;96.04;97389.84;5042332;28;22235;-67
2021/07/25 04:22:35;;;;;;;11.27;7.77;;;;;;;26.23;93.61;97399.81;5052746;28;20866;-67
2021/07/25 04:25:03;;;;;;;10.77;7.57;;;;;;;25.86;96.12;97402.16;5049788;28;20202;-67
2021/07/25 04:27:30;;;;;;;11.17;7.47;;;;;;;25.60;98.79;97395.72;5051932;28;20216;-67
2021/07/25 04:29:59;;;;;;;11.97;7.33;;;;;;;25.37;98.89;97394.91;5047516;28;20215;-67
2021/07/25 04:32:27;;;;;;;11.87;7.37;;;;;;;25.56;97.83;97395.53;5044690;28;20232;-67
2021/07/25 04:34:55;;;;;;;11.80;7.20;;;;;;;25.90;95.23;97395.72;5052497;28;20208;-67
2021/07/25 04:37:25;;;;;;;13.17;7.03;;;;;;;25.82;97.14;97396.50;5036971;28;20238;-67
2021/07/25 04:39:52;;;;;;;8.27;6.70;;;;;;;26.22;94.04;97402.84;5048511;28;21035;-67
2021/07/25 04:42:23;;;;;;;9.60;6.80;;;;;;;25.95;95.70;97403.84;5040696;28;20201;-68
2021/07/25 04:44:55;;;;;;;10.00;7.10;;;;;;;26.26;94.48;97412.03;5051065;28;20610;-67
2021/07/25 04:47:34;;;;;;;12.50;7.03;;;;;;;26.17;94.21;97417.47;5051437;28;20237;-67
2021/07/25 04:50:05;;;;;;;9.27;7.00;;;;;;;25.66;97.88;97416.34;5041213;28;20220;-67
2021/07/25 04:52:38;;;;;;;11.00;6.90;;;;;;;25.25;100.00;97405.59;5050276;28;20697;-68
2021/07/25 04:55:08;;;;;;;8.17;6.67;;;;;;;26.27;92.61;97405.44;5043605;28;20267;-66
2021/07/25 04:57:41;;;;;;;9.10;6.17;;;;;;;26.63;90.31;97411.56;5050164;28;20203;-66
2021/07/25 05:00:10;;;;;;;8.70;6.20;;;;;;;26.73;90.44;97424.94;5043667;28;20211;-67
2021/07/25 05:02:40;;;;;;;8.93;6.23;;;;;;;26.60;90.04;97420.44;5049720;28;20202;-67
2021/07/25 05:05:08;;;;;;;8.73;5.50;;;;;;;26.43;90.81;97425.78;5050942;28;20260;-67
2021/07/25 05:07:40;;;;;;;8.23;6.00;;;;;;;26.13;92.47;97423.88;5053348;28;20208;-67
2021/07/25 05:10:09;;;;;;;7.83;5.20;;;;;;;26.45;92.00;97426.28;5043847;28;20206;-68
2021/07/25 05:12:41;;;;;;;9.40;5.60;;;;;;;26.92;90.01;97423.56;5048551;28;20245;-69
2021/07/25 05:15:15;;;;;;;7.57;6.10;;;;;;;26.84;86.73;97427.09;5049912;28;20206;-70
2021/07/25 05:17:46;;;;;;;7.27;5.90;;;;;;;26.51;90.76;97427.75;5052126;28;20650;-73
2021/07/25 05:20:17;;;;;;;10.67;5.50;;;;;;;26.14;93.05;97431.00;5059264;28;20209;-69
2021/07/25 05:22:50;;;;;;;9.83;5.77;;;;;;;25.54;100.00;97424.31;5051807;28;20191;-69
2021/07/25 05:25:18;;;;;;;8.57;5.50;;;;;;;26.51;93.11;97431.28;5041325;28;20205;-69
2021/07/25 05:27:48;;;;;;;7.63;5.30;;;;;;;26.66;90.64;97436.38;5051357;28;20197;-69
2021/07/25 05:30:17;;;;;;;8.10;5.23;;;;;;;26.73;89.91;97439.47;5044629;28;20210;-68
2021/07/25 05:32:46;;;;;;;7.80;5.43;;;;;;;26.92;89.50;97436.44;5046868;28;20230;-69
2021/07/25 05:35:14;;;;;;;7.73;4.90;;;;;;;26.98;88.89;97433.25;5043801;28;20680;-69
2021/07/25 05:37:42;;;;;;;9.87;5.70;;;;;;;26.84;89.94;97438.03;5051234;28;20542;-68
2021/07/25 05:40:10;;;;;;;11.77;4.80;;;;;;;26.86;90.72;97435.00;5042233;28;20213;-69
2021/07/25 05:42:39;;;;;;;7.40;5.00;;;;;;;27.17;90.27;97435.69;5050602;28;20207;-69
2021/07/25 05:45:08;;;;;;;9.23;4.47;;;;;;;27.73;84.92;97435.53;5050983;28;20205;-69
2021/07/25 05:47:36;;;;;;;7.57;4.60;;;;;;;26.84;89.51;97423.53;5050981;28;20264;-69
2021/07/25 05:50:05;;;;;;;6.17;4.67;;;;;;;27.45;81.64;97429.59;5044120;28;20206;-68
2021/07/25 05:52:43;;;;;;;6.40;4.20;;;;;;;27.75;81.90;97436.00;5051518;28;20232;-68
2021/07/25 05:55:11;;;;;;;6.20;4.00;;;;;;;28.12;77.38;97438.09;5051286;28;20213;-69
2021/07/25 05:57:38;;;;;;;4.70;3.90;;;;;;;27.76;84.55;97426.69;5043962;28;20620;-68
2021/07/25 06:00:07;;;;;;;5.20;4.03;;;;;;;27.42;86.61;97432.97;5042760;28;20570;-69
2021/07/25 06:02:42;;;;;;;5.83;3.93;;;;;;;27.20;87.75;97427.66;5049719;28;20203;-70
2021/07/25 06:05:11;;;;;;;7.73;3.87;;;;;;;27.79;82.02;97431.53;5050727;28;20206;-70
2021/07/25 06:07:38;;;;;;;8.27;4.60;;;;;;;27.50;85.23;97436.84;5057943;28;20214;-69
2021/07/25 06:10:06;;;;;;;4.97;4.23;;;;;;;27.04;89.57;97440.16;5049190;28;20221;-70
2021/07/25 06:12:33;;;;;;;6.40;3.80;;;;;;;27.13;88.70;97449.22;5050437;28;20234;-70
2021/07/25 06:15:01;;;;;;;7.03;4.10;;;;;;;27.25;86.36;97449.41;5046851;28;20197;-71
2021/07/25 06:17:28;;;;;;;4.83;3.67;;;;;;;27.83;82.56;97444.25;5049099;28;20821;-68
2021/07/25 06:19:55;;;;;;;6.00;4.13;;;;;;;26.74;86.50;97452.03;5051490;28;20826;-70
2021/07/25 06:22:24;;;;;;;6.10;4.37;;;;;;;27.35;84.08;97446.34;5042240;28;20202;-68
2021/07/25 06:24:51;;;;;;;5.83;3.97;;;;;;;26.39;92.12;97443.94;5050037;28;20213;-68
2021/07/25 06:27:18;;;;;;;5.10;3.97;;;;;;;26.19;92.96;97439.84;5053840;28;20248;-71
2021/07/25 06:29:46;;;;;;;6.60;4.60;;;;;;;27.10;86.92;97440.81;5050212;28;20208;-69
2021/07/25 06:32:13;;;;;;;5.70;3.60;;;;;;;27.08;86.62;97448.56;5048766;28;20225;-68
2021/07/25 06:34:40;;;;;;;4.23;3.70;;;;;;;27.35;85.90;97442.81;5046756;28;20205;-69
2021/07/25 06:37:08;;;;;;;5.03;3.80;;;;;;;26.95;85.38;97436.59;5067798;22;20234;-66
2021/07/25 06:39:36;;;;;;;5.40;4.17;;;;;;;27.59;82.43;97438.47;5029680;28;20202;-66
2021/07/25 06:42:04;;;;;;;5.70;4.50;;;;;;;27.55;85.81;97432.00;5029539;28;20203;-66
2021/07/25 06:44:31;;;;;;;5.73;4.40;;;;;;;27.87;82.87;97427.97;5027734;28;20215;-66
2021/07/25 06:46:59;;;;;;;6.33;4.33;;;;;;;27.54;82.30;97429.59;5027974;28;20592;-66
2021/07/25 06:49:26;;;;;;;5.57;4.13;;;;;;;27.33;80.98;97425.88;5030621;28;20656;-68
2021/07/25 06:51:53;;;;;;;6.67;4.23;;;;;;;26.86;86.32;97426.78;5035451;28;20695;-66
2021/07/25 06:54:20;;;;;;;4.90;3.77;;;;;;;28.26;76.18;97422.19;5032424;28;20212;-72
2021/07/25 06:56:49;;;;;;;5.57;3.93;;;;;;;29.40;68.90;97439.06;5033250;28;20293;-67
2021/07/25 06:59:16;;;;;;;4.40;3.60;;;;;;;30.48;65.11;97446.94;5034792;28;20209;-72
2021/07/25 07:01:44;;;;;;;4.40;3.47;;;;;;;29.63;69.48;97434.06;5044982;28;20227;-74
2021/07/25 07:04:11;;;;;;;6.47;4.10;;;;;;;29.34;68.10;97428.63;5034402;28;20220;-76
2021/07/25 07:06:41;;;;;;;4.10;3.60;;;;;;;29.87;68.41;97423.16;5038843;28;20665;-74
2021/07/25 07:09:08;;;;;;;6.27;3.67;;;;;;;29.35;71.84;97424.72;5035193;28;20218;-77
2021/07/25 07:11:35;;;;;;;4.63;3.70;;;;;;;28.57;75.90;97420.00;5040992;28;20201;-74
2021/07/25 07:14:04;;;;;;;5.18;3.47;;;;;;;28.09;76.10;97412.13;5029300;28;20720;-77
2021/07/25 07:16:32;;;;;;;6.97;4.97;;;;;;;27.43;83.82;97398.97;5039560;28;20209;-74
2021/07/25 07:18:59;;;;;;;7.10;4.33;;;;;;;28.54;77.79;97402.25;5034448;28;20753;-75
2021/07/25 07:21:26;;;;;;;4.83;4.30;;;;;;;27.71;81.15;97410.41;5041517;28;20664;-72
2021/07/25 07:23:55;;;;;;;7.73;4.60;;;;;;;28.58;76.39;97413.41;5033699;28;20203;-75
2021/07/25 07:26:22;;;;;;;6.90;4.50;;;;;;;28.38;74.83;97414.91;5040538;28;20265;-74
2021/07/25 07:28:49;;;;;;;5.40;4.30;;;;;;;28.72;74.50;97409.28;5029891;28;20867;-75
2021/07/25 07:31:18;;;;;;;6.20;3.83;;;;;;;29.03;72.25;97407.00;5034860;28;20223;-79
2021/07/25 07:33:45;;;;;;;6.03;4.23;;;;;;;28.83;74.80;97410.50;5034852;28;20221;-73
2021/07/25 07:36:13;;;;;;;6.07;5.07;;;;;;;29.24;73.64;97416.06;5038045;28;20212;-75
2021/07/25 07:38:40;;;;;;;8.57;5.10;;;;;;;28.92;73.61;97421.44;5032377;28;20240;-75
2021/07/25 07:41:07;;;;;;;5.83;4.40;;;;;;;29.49;70.06;97423.31;5034058;28;20213;-74
2021/07/25 07:43:34;;;;;;;7.57;4.90;;;;;;;29.89;70.46;97418.13;5037039;28;20217;-74
2021/07/25 07:46:02;;;;;;;6.20;4.37;;;;;;;28.26;75.72;97403.00;5045479;28;20209;-74
2021/07/25 07:48:30;;;;;;;9.07;4.87;;;;;;;27.96;79.29;97406.81;5052516;28;20228;-73
2021/07/25 07:50:58;;;;;;;6.30;4.97;;;;;;;28.64;76.31;97398.34;5043653;28;20232;-75
2021/07/25 07:53:25;;;;;;;7.13;4.80;;;;;;;28.45;74.11;97393.28;5054744;28;20307;-76
2021/07/25 07:55:52;;;;;;;6.87;4.83;;;;;;;28.95;72.48;97399.59;5043674;28;20202;-79
2021/07/25 07:58:20;;;;;;;7.23;4.43;;;;;;;29.61;68.41;97400.59;5055187;28;20308;-78
2021/07/25 08:00:48;;;;;;;7.67;3.87;;;;;;;29.60;64.60;97404.50;5033753;28;20245;-79
2021/07/25 08:03:15;;;;;;;5.43;4.20;;;;;;;30.48;62.87;97408.41;5053232;28;20263;-75
2021/07/25 08:05:45;;;;;;;6.30;4.50;;;;;;;29.84;65.65;97399.88;5057963;28;20629;-80
2021/07/25 08:08:12;;;;;;;7.17;4.60;;;;;;;30.14;66.98;97401.34;5049178;28;20256;-78
2021/07/25 08:10:39;;;;;;;9.07;5.40;;;;;;;28.03;81.31;97396.94;5046939;28;20261;-78
2021/07/25 08:13:07;;;;;;;7.60;5.40;;;;;;;28.28;79.59;97392.50;5039643;28;20241;-80
2021/07/25 08:15:34;;;;;;;9.48;5.05;;;;;;;29.05;75.38;97406.69;5039219;28;20201;-79
2021/07/25 08:18:02;;;;;;;9.80;4.43;;;;;;;30.19;64.57;97422.34;5042673;28;20229;-77
2021/07/25 08:20:29;;;;;;;6.03;4.25;;;;;;;30.09;65.62;97423.56;5037785;28;20213;-77
2021/07/25 08:22:58;;;;;;;5.88;4.25;;;;;;;28.31;74.64;97402.81;5037480;28;20198;-75
2021/07/25 08:25:25;;;;;;;6.57;4.07;;;;;;;28.46;74.50;97411.34;5045962;28;20231;-79
2021/07/25 08:27:52;;;;;;;6.55;4.80;;;;;;;29.93;68.82;97410.78;5043688;28;20240;-80
2021/07/25 08:30:20;;;;;;;5.85;4.30;;;;;;;29.77;71.68;97407.88;5034896;28;20205;-77
2021/07/25 08:32:47;;;;;;;6.72;4.80;;;;;;;29.30;72.53;97414.72;5036276;28;20222;-75
2021/07/25 08:35:14;;;;;;;8.17;5.50;;;;;;;28.53;77.92;97408.09;5048429;28;20209;-78
2021/07/25 08:37:42;;;;;;;8.57;5.07;;;;;;;28.39;74.26;97418.50;5045051;28;20263;-77
2021/07/25 08:40:14;;;;;;;5.37;4.50;;;;;;;28.46;75.08;97408.59;5045418;28;20664;-77
2021/07/25 08:42:49;;;;;;;7.50;4.83;;;;;;;29.70;66.73;97423.31;5037547;28;20293;-76
2021/07/25 08:45:18;;;;;;;7.57;4.43;;;;;;;28.50;74.08;97419.72;5029669;28;20213;-72
2021/07/25 08:47:46;;;;;;;7.10;4.30;;;;;;;29.33;68.99;97432.50;5035253;28;20560;-71
2021/07/25 08:50:15;;;;;;;6.20;4.70;;;;;;;29.23;70.00;97428.19;5028268;28;20224;-79
2021/07/25 08:52:44;;;;;;;7.07;4.70;;;;;;;30.23;66.53;97431.53;5041581;28;20244;-70
2021/07/25 08:55:15;;;;;;;8.05;5.18;;;;;;;30.70;62.62;97435.53;5037401;28;20816;-70
2021/07/25 08:57:44;;;;;;;7.20;5.20;;;;;;;30.95;61.22;97443.44;5029063;28;20591;-70
2021/07/25 09:00:13;;;;;;;8.07;5.32;;;;;;;30.37;63.06;97438.34;5033040;28;20722;-70
2021/07/25 09:02:41;;;;;;;7.35;5.28;;;;;;;29.78;66.84;97433.44;5033616;28;20205;-71
2021/07/25 09:05:10;;;;;;;7.95;5.30;;;;;;;30.10;65.92;97438.16;5035764;28;20213;-74
2021/07/25 09:07:40;;;;;;;7.80;5.67;;;;;;;28.74;72.24;97428.97;5032398;28;20592;-71
2021/07/25 09:10:10;;;;;;;7.90;5.17;;;;;;;28.71;72.41;97428.81;5032628;28;20210;-75
2021/07/25 09:12:39;;;;;;;7.47;4.80;;;;;;;28.81;72.64;97437.50;5034346;28;20208;-72
2021/07/25 09:15:10;;;;;;;8.17;4.73;;;;;;;30.13;67.05;97435.53;5044133;28;20718;-73
2021/07/25 09:17:37;;;;;;;7.40;4.63;;;;;;;28.83;72.81;97418.75;5046563;28;20578;-76
2021/07/25 09:20:21;;;;;;;5.70;4.93;;;;;;;30.37;65.43;97434.78;5037476;28;20221;-75
2021/07/25 09:23:03;;;;;;;6.87;5.03;;;;;;;30.66;63.90;97429.09;5036017;28;20216;-74
2021/07/25 09:25:35;;;;;;;7.93;4.53;;;;;;;29.89;68.46;97418.13;5038755;28;20210;-73
2021/07/25 09:28:16;;;;;;;6.25;4.80;;;;;;;29.05;70.38;97412.16;5033095;28;20232;-75
2021/07/25 09:30:43;;;;;;;9.35;4.97;;;;;;;29.03;70.21;97426.25;5034206;28;20210;-74
2021/07/25 09:33:26;;;;;;;7.57;5.03;;;;;;;30.07;64.76;97423.09;5049094;28;20233;-75
2021/07/25 09:35:56;;;;;;;6.18;4.78;;;;;;;30.50;63.14;97433.66;5036292;28;20674;-73
2021/07/25 09:38:26;;;;;;;7.05;4.55;;;;;;;30.85;63.59;97438.41;5038419;28;20240;-79
2021/07/25 09:40:54;;;;;;;5.85;4.63;;;;;;;31.55;60.21;97446.13;5056032;28;20237;-79
2021/07/25 09:43:24;;;;;;;6.80;4.80;;;;;;;30.57;62.08;97454.00;5037517;28;20670;-74
2021/07/25 09:45:57;;;;;;;6.82;4.93;;;;;;;30.62;63.34;97448.25;5032809;28;20210;-72
2021/07/25 09:48:26;;;;;;;7.18;5.55;;;;;;;30.99;60.63;97468.34;5030614;28;20231;-73
2021/07/25 09:50:54;;;;;;;15.02;8.32;;;;;;;31.39;59.46;97469.28;5032845;28;20221;-73
2021/07/25 09:53:26;;;;;;;12.85;7.22;;;;;;;31.07;60.85;97472.97;5031008;28;20732;-73
2021/07/25 09:55:53;;;;;;;9.88;6.80;;;;;;;30.99;60.17;97473.88;5030855;28;20361;-74
2021/07/25 09:58:34;;;;;;;8.93;6.13;;;;;;;30.15;66.00;97462.72;5037372;28;20227;-74
2021/07/25 10:01:02;;;;;;;10.73;6.15;;;;;;;30.75;62.88;97465.59;5027532;28;20210;-74
2021/07/25 10:03:33;;;;;;;7.25;4.85;;;;;;;30.23;64.79;97465.38;5035470;28;20211;-74
2021/07/25 10:06:01;;;;;;;6.05;4.35;;;;;;;30.48;62.06;97467.06;5037066;28;20581;-75
2021/07/25 10:08:29;;;;;;;5.63;4.35;;;;;;;30.80;61.06;97470.88;5039008;28;20230;-76
2021/07/25 10:10:57;;;;;;;9.00;4.50;;;;;;;30.11;67.08;97468.09;5039562;28;20217;-74
2021/07/25 10:13:26;;;;;;;9.00;4.33;;;;;;;29.67;71.75;97462.50;5042101;28;20699;-75
2021/07/25 10:15:58;;;;;;;7.20;4.35;;;;;;;29.80;68.62;97467.72;5032092;28;20550;-73
2021/07/25 10:18:27;;;;;;;7.20;4.07;;;;;;;29.35;68.52;97465.97;5033490;28;20233;-74
2021/07/25 10:20:56;;;;;;;5.83;3.83;;;;;;;29.03;71.01;97475.72;5036095;28;20213;-75
2021/07/25 10:23:29;;;;;;;5.63;4.00;;;;;;;28.21;75.83;97464.38;5031990;28;20205;-77
2021/07/25 10:25:56;;;;;;;5.33;3.80;;;;;;;28.93;70.56;97475.25;5037588;28;20188;-75
2021/07/25 10:28:24;;;;;;;5.40;3.80;;;;;;;28.49;73.49;97460.13;5051186;28;20733;-78
2021/07/25 10:30:51;;;;;;;5.40;3.93;;;;;;;28.75;74.54;97457.25;5038149;28;20203;-76
2021/07/25 10:33:20;;;;;;;7.37;3.90;;;;;;;28.18;79.04;97459.53;5042857;28;20199;-81
2021/07/25 10:35:48;;;;;;;7.20;4.07;;;;;;;28.89;74.00;97457.81;5045296;28;20208;-77
2021/07/25 10:38:15;;;;;;;6.43;3.87;;;;;;;28.38;77.68;97452.53;5034010;28;20240;-75
2021/07/25 10:40:45;;;;;;;5.37;3.83;;;;;;;28.76;75.33;97451.44;5031063;28;20202;-72
2021/07/25 10:43:15;;;;;;;5.20;3.93;;;;;;;27.77;82.42;97451.00;5042180;28;20211;-73
2021/07/25 10:45:42;;;;;;;5.60;3.80;;;;;;;27.96;82.10;97464.41;5040338;28;20207;-76
2021/07/25 10:48:13;;;;;;;5.63;3.83;;;;;;;27.89;82.75;97469.59;5040653;28;20225;-76
2021/07/25 10:50:43;;;;;;;5.37;3.80;;;;;;;27.62;81.02;97467.16;5033417;28;20209;-72
2021/07/25 10:53:21;;;;;;;6.80;4.20;;;;;;;27.59;86.77;97457.66;5031644;28;20572;-72
2021/07/25 10:55:52;;;;;;;7.27;4.17;;;;;;;27.71;84.69;97459.75;5033465;28;20214;-72
2021/07/25 10:58:21;;;;;;;4.87;3.87;;;;;;;27.44;88.51;97458.13;5038059;28;20598;-73
2021/07/25 11:00:51;;;;;;;6.40;4.10;;;;;;;28.46;81.47;97469.00;5030331;28;20210;-74
2021/07/25 11:03:42;;;;;;;6.57;4.47;;;;;;;28.49;81.63;97460.13;5036965;28;20253;-75
2021/07/25 11:06:18;;;;;;;4.43;3.83;;;;;;;28.10;83.26;97467.78;5036161;28;20206;-74
2021/07/25 11:08:47;;;;;;;5.47;3.80;;;;;;;28.36;80.85;97471.25;5035722;28;20286;-72
2021/07/25 11:11:51;;;;;;;4.53;3.47;;;;;;;28.02;81.77;97469.41;5040214;28;20256;-72
2021/07/25 11:15:04;;;;;;;5.07;4.00;;;;;;;28.01;81.72;97465.06;5033628;28;20579;-77
2021/07/25 11:17:53;;;;;;;5.57;4.30;;;;;;;27.18;85.79;97467.47;5032323;28;20229;-77
2021/07/25 11:20:56;;;;;;;5.13;4.17;;;;;;;28.02;81.81;97465.88;5042606;28;20313;-76
2021/07/25 11:23:38;;;;;;;6.57;4.57;;;;;;;28.19;83.45;97465.81;5017136;28;20198;-76
2021/07/25 11:26:43;;;;;;;6.50;4.60;;;;;;;28.43;80.01;97475.13;5043139;28;20196;-79
2021/07/25 11:29:41;;;;;;;6.43;4.60;;;;;;;27.74;85.85;97487.34;5035401;28;20202;-76
2021/07/25 11:32:36;;;;;;;8.47;4.83;;;;;;;28.48;81.17;97485.94;5033979;28;20198;-76
2021/07/25 11:35:05;;;;;;;8.00;4.73;;;;;;;27.96;85.08;97489.91;5032372;28;20222;-75
2021/07/25 11:37:40;;;;;;;5.80;5.17;;;;;;;28.61;79.89;97479.44;5038858;28;20228;-75
2021/07/25 11:40:10;;;;;;;6.50;4.63;;;;;;;28.93;77.05;97475.25;5044989;28;20210;-75